^^
Saratoga-Weather Station Historical Data
Daily Summary for January 25, 2021 Units:  Metric    English   Both
Daily Weekly Monthly Yearly Custom
  High: Low: Average:
Temperature: 4.2 °C -1.3 °C 2.1 °C
Dew Point: 1.6 °C -2.1 °C 0.2 °C
Humidity: 96% 77% 88%
Wind Speed: 11.3km/h 0km/h 0.6km/h
Wind Gust: 16.1km/h - -
Wind- - WSW
Pressure: 1012.9 hPa 1009.5 hPa -
Precipitation: 0.0 mm    
Historical Graphs
 
 
Tabular Data for January 25, 2021
Time Temperature Dew Point Pressure Wind Wind Speed Wind Gust Humidity Rainfall Rate (Hourly) solar
00:02 -1.2 °C -2 °C 1012.9 hPa Calm     94% 0.0 mm 0 W/m2
00:07 -1.2 °C -2 °C 1012.9 hPa Calm     94% 0.0 mm 0 W/m2
00:12 -1.3 °C -2.1 °C 1012.9 hPa Calm     94% 0.0 mm 0 W/m2
00:17 -1.2 °C -1.9 °C 1012.9 hPa Calm     95% 0.0 mm 0 W/m2
00:22 -1.2 °C -1.9 °C 1012.9 hPa Calm     95% 0.0 mm 0 W/m2
00:27 -1.2 °C -1.9 °C 1012.9 hPa Calm     95% 0.0 mm 0 W/m2
00:32 -1.3 °C -2 °C 1012.9 hPa Calm     95% 0.0 mm 0 W/m2
00:37 -1.3 °C -2.1 °C 1012.9 hPa Calm     94% 0.0 mm 0 W/m2
00:42 -1.3 °C -2 °C 1012.9 hPa Calm     95% 0.0 mm 0 W/m2
00:47 -1.3 °C -2 °C 1012.9 hPa Calm     95% 0.0 mm 0 W/m2
00:52 -1.2 °C -1.9 °C 1012.9 hPa ESE 1.4 km/h 3.2 km/h 95% 0.0 mm 0 W/m2
00:57 -1.1 °C -1.8 °C 1012.9 hPa Calm     95% 0.0 mm 0 W/m2
01:02 -1.1 °C -1.8 °C 1012.9 hPa Calm     95% 0.0 mm 0 W/m2
01:07 -1.1 °C -1.8 °C 1012.9 hPa Calm     95% 0.0 mm 0 W/m2
01:12 -1.1 °C -1.8 °C 1012.9 hPa Calm     95% 0.0 mm 0 W/m2
01:17 -1 °C -1.7 °C 1012.5 hPa Calm     95% 0.0 mm 0 W/m2
01:22 -1 °C -1.7 °C 1012.5 hPa Calm     95% 0.0 mm 0 W/m2
01:27 -1 °C -1.7 °C 1012.5 hPa Calm     95% 0.0 mm 0 W/m2
01:32 -1 °C -1.7 °C 1012.5 hPa Calm     95% 0.0 mm 0 W/m2
01:47 -1.1 °C -1.8 °C 1011.9 hPa Calm     95% 0.0 mm 0 W/m2
01:52 -1 °C -1.7 °C 1011.9 hPa Calm   1.6 km/h 95% 0.0 mm 0 W/m2
02:02 -1.1 °C -1.8 °C 1011.9 hPa Calm     95% 0.0 mm 0 W/m2
02:07 -1.2 °C -1.9 °C 1011.9 hPa Calm     95% 0.0 mm 0 W/m2
02:12 -1.2 °C -1.9 °C 1011.9 hPa ESE 1.4 km/h 3.2 km/h 95% 0.0 mm 0 W/m2
02:17 -1.2 °C -1.9 °C 1011.9 hPa Calm   1.6 km/h 95% 0.0 mm 0 W/m2
02:22 -1 °C -1.6 °C 1011.9 hPa Calm     96% 0.0 mm 0 W/m2
02:27 -0.8 °C -1.4 °C 1011.9 hPa Calm     96% 0.0 mm 0 W/m2
02:32 -0.6 °C -1.2 °C 1011.9 hPa Calm     96% 0.0 mm 0 W/m2
02:37 -0.4 °C -1 °C 1011.9 hPa Calm     96% 0.0 mm 0 W/m2
02:42 -0.3 °C -0.9 °C 1011.9 hPa Calm     96% 0.0 mm 0 W/m2
02:47 -0.3 °C -0.9 °C 1011.9 hPa Calm     96% 0.0 mm 0 W/m2
02:52 -0.3 °C -0.9 °C 1011.9 hPa Calm     96% 0.0 mm 0 W/m2
02:57 -0.3 °C -0.9 °C 1012.2 hPa Calm     96% 0.0 mm 0 W/m2
03:02 -0.3 °C -0.9 °C 1012.2 hPa Calm     96% 0.0 mm 0 W/m2
03:07 -0.3 °C -0.9 °C 1011.9 hPa Calm     96% 0.0 mm 0 W/m2
03:12 -0.2 °C -0.8 °C 1011.9 hPa Calm     96% 0.0 mm 0 W/m2
03:17 -0.2 °C -0.8 °C 1011.9 hPa Calm     96% 0.0 mm 0 W/m2
03:22 -0.1 °C -0.7 °C 1011.9 hPa Calm     96% 0.0 mm 0 W/m2
03:27 -0.1 °C -0.7 °C 1011.9 hPa Calm     96% 0.0 mm 0 W/m2
03:32 0.1 °C -0.5 °C 1011.9 hPa Calm     96% 0.0 mm 0 W/m2
03:37 0.1 °C -0.5 °C 1011.9 hPa Calm     96% 0.0 mm 0 W/m2
03:42 0.1 °C -0.5 °C 1011.5 hPa Calm     96% 0.0 mm 0 W/m2
03:47 0.2 °C -0.4 °C 1011.5 hPa Calm     96% 0.0 mm 0 W/m2
03:52 0.2 °C -0.4 °C 1011.5 hPa Calm     96% 0.0 mm 0 W/m2
03:57 0.2 °C -0.4 °C 1011.5 hPa Calm     96% 0.0 mm 0 W/m2
04:02 0.2 °C -0.4 °C 1011.5 hPa Calm     96% 0.0 mm 0 W/m2
04:07 0.2 °C -0.4 °C 1011.5 hPa Calm     96% 0.0 mm 0 W/m2
04:12 0.3 °C -0.3 °C 1011.2 hPa Calm     96% 0.0 mm 0 W/m2
04:17 0.3 °C -0.3 °C 1011.2 hPa Calm   1.6 km/h 96% 0.0 mm 0 W/m2
04:23 0.3 °C -0.3 °C 1011.2 hPa Calm     96% 0.0 mm 0 W/m2
04:28 0.3 °C -0.3 °C 1011.2 hPa Calm   1.6 km/h 96% 0.0 mm 0 W/m2
04:33 0.3 °C -0.3 °C 1011.2 hPa Calm     96% 0.0 mm 0 W/m2
04:38 0.3 °C -0.3 °C 1011.2 hPa Calm     96% 0.0 mm 0 W/m2
04:43 0.4 °C -0.2 °C 1011.2 hPa Calm     96% 0.0 mm 0 W/m2
04:48 0.4 °C -0.2 °C 1011.2 hPa Calm   1.6 km/h 96% 0.0 mm 0 W/m2
04:53 0.4 °C -0.2 °C 1011.2 hPa Calm     96% 0.0 mm 0 W/m2
04:58 0.4 °C -0.2 °C 1011.2 hPa Calm   1.6 km/h 96% 0.0 mm 0 W/m2
05:03 0.5 °C -0.1 °C 1011.2 hPa Calm     96% 0.0 mm 0 W/m2
05:08 0.6 °C 0 °C 1011.2 hPa Calm     96% 0.0 mm 0 W/m2
05:13 0.6 °C 0 °C 1011.2 hPa Calm     96% 0.0 mm 0 W/m2
05:18 0.7 °C 0.1 °C 1011.2 hPa Calm     96% 0.0 mm 0 W/m2
05:23 0.8 °C 0.2 °C 1011.2 hPa Calm     96% 0.0 mm 0 W/m2
05:28 0.8 °C 0.2 °C 1011.2 hPa Calm     96% 0.0 mm 0 W/m2
05:33 0.9 °C 0.3 °C 1011.2 hPa Calm   1.6 km/h 96% 0.0 mm 0 W/m2
05:38 1 °C 0.4 °C 1011.2 hPa Calm     96% 0.0 mm 0 W/m2
05:43 1.1 °C 0.5 °C 1011.2 hPa Calm   1.6 km/h 96% 0.0 mm 0 W/m2
05:48 1.2 °C 0.6 °C 1011.2 hPa Calm     96% 0.0 mm 0 W/m2
05:58 1.2 °C 0.6 °C 1010.8 hPa Calm     96% 0.0 mm 0 W/m2
06:03 1.3 °C 0.7 °C 1011.2 hPa Calm     96% 0.0 mm 0 W/m2
06:08 1.3 °C 0.6 °C 1011.2 hPa Calm     95% 0.0 mm 0 W/m2
06:13 1.3 °C 0.6 °C 1011.2 hPa Calm     95% 0.0 mm 0 W/m2
06:18 1.3 °C 0.6 °C 1011.2 hPa Calm     95% 0.0 mm 0 W/m2
06:23 1.3 °C 0.6 °C 1010.8 hPa Calm     95% 0.0 mm 0 W/m2
06:28 1.3 °C 0.6 °C 1010.8 hPa Calm     95% 0.0 mm 0 W/m2
06:33 1.4 °C 0.7 °C 1010.8 hPa Calm     95% 0.0 mm 0 W/m2
06:38 1.4 °C 0.7 °C 1010.8 hPa Calm     95% 0.0 mm 0 W/m2
06:43 1.4 °C 0.7 °C 1010.8 hPa Calm     95% 0.0 mm 0 W/m2
06:48 1.4 °C 0.5 °C 1010.8 hPa Calm     94% 0.0 mm 0 W/m2
06:53 1.4 °C 0.5 °C 1010.8 hPa Calm     94% 0.0 mm 0 W/m2
06:58 1.4 °C 0.5 °C 1010.8 hPa Calm     94% 0.0 mm 0 W/m2
07:03 1.5 °C 0.6 °C 1010.8 hPa Calm     94% 0.0 mm 0 W/m2
07:08 1.5 °C 0.6 °C 1010.8 hPa Calm     94% 0.0 mm 0 W/m2
07:13 1.6 °C 0.7 °C 1010.8 hPa Calm     94% 0.0 mm 0 W/m2
07:18 1.6 °C 0.6 °C 1010.8 hPa Calm     93% 0.0 mm 0 W/m2
07:23 1.6 °C 0.6 °C 1010.8 hPa Calm     93% 0.0 mm 0 W/m2
07:28 1.6 °C 0.6 °C 1010.8 hPa Calm     93% 0.0 mm 0 W/m2
07:33 1.7 °C 0.7 °C 1010.8 hPa Calm     93% 0.0 mm 0 W/m2
07:38 1.7 °C 0.5 °C 1010.8 hPa Calm     92% 0.0 mm 0 W/m2
07:43 1.8 °C 0.6 °C 1010.8 hPa Calm   1.6 km/h 92% 0.0 mm 0 W/m2
07:48 1.8 °C 0.6 °C 1011.2 hPa Calm     92% 0.0 mm 0 W/m2
07:53 1.8 °C 0.5 °C 1011.2 hPa Calm   3.2 km/h 91% 0.0 mm 0 W/m2
07:58 1.8 °C 0.5 °C 1011.2 hPa Calm     91% 0.0 mm 0 W/m2
08:03 1.8 °C 0.5 °C 1011.2 hPa Calm     91% 0.0 mm 0 W/m2
08:08 1.9 °C 0.6 °C 1011.2 hPa Calm     91% 0.0 mm 0 W/m2
08:13 1.9 °C 0.6 °C 1011.2 hPa Calm     91% 0.0 mm 0 W/m2
08:18 1.9 °C 0.4 °C 1011.2 hPa SE 1.6 km/h 1.6 km/h 90% 0.0 mm 5 W/m2
08:23 2 °C 0.5 °C 1011.2 hPa Calm     90% 0.0 mm 5 W/m2
08:28 2.1 °C 0.6 °C 1011.2 hPa Calm   1.6 km/h 90% 0.0 mm 7 W/m2
08:33 2.2 °C 0.7 °C 1011.2 hPa Calm   1.6 km/h 90% 0.0 mm 9 W/m2
08:38 2.2 °C 0.6 °C 1011.2 hPa Calm     89% 0.0 mm 11 W/m2
08:43 2.2 °C 0.6 °C 1011.2 hPa NW 3.2 km/h 3.2 km/h 89% 0.0 mm 12 W/m2
08:48 2.3 °C 0.7 °C 1011.2 hPa Calm     89% 0.0 mm 18 W/m2
08:53 2.3 °C 0.5 °C 1011.2 hPa WNW 1.4 km/h 3.2 km/h 88% 0.0 mm 18 W/m2
08:58 2.4 °C 0.6 °C 1011.5 hPa WNW 1.4 km/h 3.2 km/h 88% 0.0 mm 16 W/m2
09:03 2.4 °C 0.5 °C 1011.5 hPa Calm     87% 0.0 mm 23 W/m2
09:08 2.5 °C 0.6 °C 1011.5 hPa Calm   4.8 km/h 87% 0.0 mm 26 W/m2
09:13 2.6 °C 0.7 °C 1011.5 hPa NNW 3.2 km/h 4.8 km/h 87% 0.0 mm 32 W/m2
09:18 2.6 °C 0.5 °C 1011.5 hPa Calm   1.6 km/h 86% 0.0 mm 30 W/m2
09:23 2.7 °C 0.6 °C 1011.5 hPa Calm   4.8 km/h 86% 0.0 mm 35 W/m2
09:28 2.7 °C 0.6 °C 1011.5 hPa NW 1.4 km/h 8 km/h 86% 0.0 mm 32 W/m2
09:33 2.8 °C 0.5 °C 1011.5 hPa Calm   3.2 km/h 85% 0.0 mm 28 W/m2
09:38 2.8 °C 0.5 °C 1011.9 hPa Calm   8 km/h 85% 0.0 mm 32 W/m2
09:43 2.8 °C 0.5 °C 1011.9 hPa Calm     85% 0.0 mm 33 W/m2
09:48 2.8 °C 0.5 °C 1011.9 hPa Calm   3.2 km/h 85% 0.0 mm 30 W/m2
09:53 2.8 °C 0.4 °C 1011.9 hPa Calm   3.2 km/h 84% 0.0 mm 32 W/m2
09:58 2.9 °C 0.5 °C 1011.9 hPa NNW 1.4 km/h 1.6 km/h 84% 0.0 mm 28 W/m2
10:03 2.9 °C 0.5 °C 1011.9 hPa Calm   1.6 km/h 84% 0.0 mm 28 W/m2
10:08 2.9 °C 0.3 °C 1011.9 hPa Calm   3.2 km/h 83% 0.0 mm 28 W/m2
10:13 2.9 °C 0.5 °C 1011.9 hPa Calm   3.2 km/h 84% 0.0 mm 35 W/m2
10:18 2.9 °C 0.3 °C 1011.5 hPa Calm   3.2 km/h 83% 0.0 mm 44 W/m2
10:23 3 °C 0.6 °C 1011.5 hPa NW 3.2 km/h 4.8 km/h 84% 0.0 mm 54 W/m2
10:28 3 °C 0.4 °C 1011.5 hPa NNW 1.4 km/h 3.2 km/h 83% 0.0 mm 70 W/m2
10:33 3.1 °C 0.5 °C 1011.5 hPa NNW 4.7 km/h 6.4 km/h 83% 0.0 mm 70 W/m2
10:38 3.1 °C 0.3 °C 1011.5 hPa Calm   1.6 km/h 82% 0.0 mm 70 W/m2
10:43 3.1 °C 0.3 °C 1011.5 hPa Calm   4.8 km/h 82% 0.0 mm 74 W/m2
10:48 3.2 °C 0.4 °C 1011.5 hPa NNW 1.4 km/h 4.8 km/h 82% 0.0 mm 83 W/m2
10:53 3.2 °C 0.4 °C 1011.5 hPa NNE 3.2 km/h 3.2 km/h 82% 0.0 mm 88 W/m2
10:58 3.3 °C 0.5 °C 1011.5 hPa NE 3.2 km/h 3.2 km/h 82% 0.0 mm 91 W/m2
11:03 3.3 °C 0.4 °C 1011.5 hPa NNW 1.4 km/h 3.2 km/h 81% 0.0 mm 86 W/m2
11:13 3.3 °C 0.4 °C 1011.5 hPa NW 4.7 km/h 6.4 km/h 81% 0.0 mm 65 W/m2
11:18 3.3 °C 0.4 °C 1011.5 hPa Calm   3.2 km/h 81% 0.0 mm 67 W/m2
11:23 3.3 °C 0.4 °C 1011.5 hPa West 11.3 km/h 11.3 km/h 81% 0.0 mm 72 W/m2
11:28 3.3 °C 0.2 °C 1011.5 hPa NW 4.7 km/h 4.8 km/h 80% 0.0 mm 79 W/m2
11:33 3.3 °C 0.2 °C 1011.5 hPa NW 1.4 km/h 11.3 km/h 80% 0.0 mm 84 W/m2
11:38 3.3 °C 0.4 °C 1011.5 hPa NW 3.2 km/h 4.8 km/h 81% 0.0 mm 100 W/m2
11:43 3.3 °C 0.2 °C 1011.5 hPa ENE 1.4 km/h 8 km/h 80% 0.0 mm 114 W/m2
11:48 3.3 °C 0.2 °C 1011.5 hPa NNW 1.4 km/h 3.2 km/h 80% 0.0 mm 91 W/m2
11:53 3.3 °C 0.2 °C 1011.5 hPa WNW 1.4 km/h 6.4 km/h 80% 0.0 mm 114 W/m2
11:58 3.3 °C 0 °C 1011.5 hPa West 4.7 km/h 11.3 km/h 79% 0.0 mm 88 W/m2
12:03 3.3 °C 0 °C 1011.5 hPa NNW 4.7 km/h 6.4 km/h 79% 0.0 mm 100 W/m2
12:08 3.3 °C 0 °C 1011.5 hPa East 1.4 km/h 8 km/h 79% 0.0 mm 111 W/m2
12:13 3.3 °C 0 °C 1011.5 hPa NNE 4.7 km/h 6.4 km/h 79% 0.0 mm 130 W/m2
12:18 3.4 °C 0.1 °C 1011.2 hPa West 1.4 km/h 8 km/h 79% 0.0 mm 118 W/m2
12:23 3.4 °C 0.1 °C 1011.2 hPa North 3.2 km/h 6.4 km/h 79% 0.0 mm 111 W/m2
12:28 3.4 °C 0.1 °C 1011.2 hPa WNW 1.4 km/h 16.1 km/h 79% 0.0 mm 125 W/m2
12:33 3.5 °C 0.2 °C 1011.2 hPa WNW 4.7 km/h 4.8 km/h 79% 0.0 mm 130 W/m2
12:38 3.6 °C 0.3 °C 1011.2 hPa Calm   16.1 km/h 79% 0.0 mm 137 W/m2
12:43 3.6 °C 0.1 °C 1011.2 hPa WNW 1.4 km/h 4.8 km/h 78% 0.0 mm 123 W/m2
12:48 3.7 °C 0.2 °C 1011.2 hPa ENE 1.4 km/h 6.4 km/h 78% 0.0 mm 127 W/m2
12:53 3.7 °C 0.2 °C 1011.2 hPa Calm   6.4 km/h 78% 0.0 mm 146 W/m2
12:58 3.8 °C 0.3 °C 1011.5 hPa NW 3.2 km/h 6.4 km/h 78% 0.0 mm 134 W/m2
13:03 3.8 °C 0.3 °C 1011.5 hPa WNW 7.9 km/h 9.7 km/h 78% 0.0 mm 151 W/m2
13:08 3.8 °C 0.3 °C 1011.2 hPa NW 4.7 km/h 4.8 km/h 78% 0.0 mm 142 W/m2
13:13 3.8 °C 0.3 °C 1011.2 hPa North 3.2 km/h 8 km/h 78% 0.0 mm 137 W/m2
13:18 3.9 °C 0.4 °C 1011.2 hPa West 1.4 km/h 9.7 km/h 78% 0.0 mm 121 W/m2
13:23 3.8 °C 0.1 °C 1011.2 hPa North 1.4 km/h 4.8 km/h 77% 0.0 mm 104 W/m2
13:28 3.8 °C 0.3 °C 1010.8 hPa NNW 1.4 km/h 8 km/h 78% 0.0 mm 104 W/m2
13:33 3.8 °C 0.1 °C 1010.8 hPa WNW 3.2 km/h 3.2 km/h 77% 0.0 mm 105 W/m2
13:38 3.8 °C 0.3 °C 1010.8 hPa Calm   6.4 km/h 78% 0.0 mm 100 W/m2
13:43 3.8 °C 0.3 °C 1010.5 hPa Calm   3.2 km/h 78% 0.0 mm 93 W/m2
13:48 3.8 °C 0.1 °C 1010.5 hPa NNW 1.4 km/h 1.6 km/h 77% 0.0 mm 98 W/m2
13:53 3.9 °C 0.4 °C 1010.5 hPa ENE 3.2 km/h 4.8 km/h 78% 0.0 mm 102 W/m2
13:59 3.9 °C 0.4 °C 1010.5 hPa North 1.4 km/h 4.8 km/h 78% 0.0 mm 93 W/m2
14:04 4 °C 0.3 °C 1010.5 hPa Calm   3.2 km/h 77% 0.0 mm 95 W/m2
14:09 4.1 °C 0.4 °C 1010.5 hPa East 1.4 km/h 3.2 km/h 77% 0.0 mm 93 W/m2
14:14 4.1 °C 0.4 °C 1010.8 hPa North 1.4 km/h 8 km/h 77% 0.0 mm 97 W/m2
14:19 4.1 °C 0.4 °C 1010.5 hPa WNW 1.4 km/h 6.4 km/h 77% 0.0 mm 90 W/m2
14:24 4.2 °C 0.5 °C 1010.5 hPa NNW 1.4 km/h 8 km/h 77% 0.0 mm 90 W/m2
14:29 4.2 °C 0.5 °C 1010.8 hPa NNW 3.2 km/h 6.4 km/h 77% 0.0 mm 84 W/m2
14:34 4.2 °C 0.5 °C 1010.5 hPa NNW 3.2 km/h 3.2 km/h 77% 0.0 mm 77 W/m2
14:44 4.2 °C 0.5 °C 1010.5 hPa North 3.2 km/h 6.4 km/h 77% 0.0 mm 65 W/m2
14:49 4.2 °C 0.5 °C 1010.5 hPa Calm   3.2 km/h 77% 0.0 mm 56 W/m2
14:54 4.2 °C 0.5 °C 1010.5 hPa Calm     77% 0.0 mm 53 W/m2
14:59 4.1 °C 0.4 °C 1010.5 hPa NNW 1.4 km/h 3.2 km/h 77% 0.0 mm 49 W/m2
15:04 4.1 °C 0.6 °C 1010.5 hPa Calm   1.6 km/h 78% 0.0 mm 46 W/m2
15:09 4 °C 0.5 °C 1010.5 hPa Calm   1.6 km/h 78% 0.0 mm 42 W/m2
15:14 4 °C 0.5 °C 1010.5 hPa Calm   1.6 km/h 78% 0.0 mm 40 W/m2
15:19 3.9 °C 0.4 °C 1010.5 hPa Calm     78% 0.0 mm 39 W/m2
15:24 3.9 °C 0.6 °C 1010.5 hPa Calm   3.2 km/h 79% 0.0 mm 35 W/m2
15:29 3.8 °C 0.5 °C 1010.5 hPa Calm     79% 0.0 mm 35 W/m2
15:34 3.8 °C 0.7 °C 1010.5 hPa Calm   3.2 km/h 80% 0.0 mm 33 W/m2
15:39 3.7 °C 0.6 °C 1010.8 hPa East 1.4 km/h 1.6 km/h 80% 0.0 mm 30 W/m2
15:44 3.6 °C 0.6 °C 1010.8 hPa Calm     81% 0.0 mm 30 W/m2
15:49 3.5 °C 0.5 °C 1010.5 hPa Calm     81% 0.0 mm 30 W/m2
15:54 3.4 °C 0.6 °C 1010.8 hPa Calm     82% 0.0 mm 30 W/m2
16:04 3.2 °C 0.4 °C 1010.5 hPa Calm     82% 0.0 mm 26 W/m2
16:09 3.1 °C 0.5 °C 1010.8 hPa Calm     83% 0.0 mm 23 W/m2
16:14 3.1 °C 0.5 °C 1010.8 hPa Calm     83% 0.0 mm 21 W/m2
16:19 2.9 °C 0.3 °C 1010.8 hPa Calm     83% 0.0 mm 19 W/m2
16:24 2.8 °C 0.2 °C 1010.8 hPa Calm     83% 0.0 mm 16 W/m2
16:29 2.7 °C 0.1 °C 1010.8 hPa Calm     83% 0.0 mm 11 W/m2
16:34 2.7 °C 0.3 °C 1010.8 hPa Calm     84% 0.0 mm 9 W/m2
16:39 2.5 °C 0.1 °C 1010.8 hPa Calm     84% 0.0 mm 5 W/m2
16:44 2.4 °C 0.1 °C 1010.8 hPa Calm   1.6 km/h 85% 0.0 mm 5 W/m2
16:49 2.3 °C 0 °C 1010.8 hPa Calm     85% 0.0 mm 0 W/m2
16:54 2.2 °C 0.1 °C 1010.8 hPa Calm     86% 0.0 mm 0 W/m2
16:59 2.2 °C 0.1 °C 1010.8 hPa Calm     86% 0.0 mm 0 W/m2
17:09 2.2 °C 0.3 °C 1010.8 hPa Calm     87% 0.0 mm 0 W/m2
17:14 2.3 °C 0.4 °C 1010.8 hPa Calm     87% 0.0 mm 0 W/m2
17:19 2.3 °C 0.4 °C 1010.8 hPa Calm     87% 0.0 mm 0 W/m2
17:24 2.3 °C 0.4 °C 1010.8 hPa Calm     87% 0.0 mm 0 W/m2
17:29 2.3 °C 0.4 °C 1010.8 hPa Calm     87% 0.0 mm 0 W/m2
17:34 2.4 °C 0.5 °C 1010.5 hPa Calm     87% 0.0 mm 0 W/m2
17:39 2.4 °C 0.5 °C 1010.5 hPa Calm     87% 0.0 mm 0 W/m2
17:44 2.5 °C 0.4 °C 1010.5 hPa Calm     86% 0.0 mm 0 W/m2
17:49 2.5 °C 0.4 °C 1010.5 hPa Calm     86% 0.0 mm 0 W/m2
17:54 2.5 °C 0.6 °C 1010.8 hPa Calm     87% 0.0 mm 0 W/m2
17:59 2.5 °C 0.4 °C 1010.8 hPa Calm     86% 0.0 mm 0 W/m2
18:04 2.4 °C 0.3 °C 1010.8 hPa Calm     86% 0.0 mm 0 W/m2
18:09 2.4 °C 0.3 °C 1010.8 hPa Calm     86% 0.0 mm 0 W/m2
18:14 2.4 °C 0.3 °C 1010.8 hPa Calm     86% 0.0 mm 0 W/m2
18:19 2.3 °C 0.4 °C 1010.8 hPa Calm     87% 0.0 mm 0 W/m2
18:24 2.3 °C 0.4 °C 1010.8 hPa Calm     87% 0.0 mm 0 W/m2
18:29 2.3 °C 0.4 °C 1010.8 hPa Calm     87% 0.0 mm 0 W/m2
18:34 2.3 °C 0.4 °C 1010.8 hPa Calm     87% 0.0 mm 0 W/m2
18:39 2.4 °C 0.5 °C 1010.8 hPa Calm     87% 0.0 mm 0 W/m2
18:44 2.4 °C 0.6 °C 1010.8 hPa Calm     88% 0.0 mm 0 W/m2
18:49 2.5 °C 0.7 °C 1010.8 hPa Calm     88% 0.0 mm 0 W/m2
18:54 2.6 °C 0.8 °C 1010.8 hPa Calm     88% 0.0 mm 0 W/m2
18:59 2.7 °C 0.9 °C 1010.8 hPa Calm     88% 0.0 mm 0 W/m2
19:04 2.7 °C 0.9 °C 1010.8 hPa Calm     88% 0.0 mm 0 W/m2
19:09 2.7 °C 0.9 °C 1010.8 hPa Calm     88% 0.0 mm 0 W/m2
19:14 2.8 °C 1 °C 1010.8 hPa East 1.6 km/h 1.6 km/h 88% 0.0 mm 0 W/m2
19:19 2.9 °C 1.1 °C 1010.8 hPa East 3.2 km/h 3.2 km/h 88% 0.0 mm 0 W/m2
19:24 3 °C 1 °C 1010.8 hPa Calm   1.6 km/h 87% 0.0 mm 0 W/m2
19:29 3 °C 1 °C 1010.8 hPa Calm     87% 0.0 mm 0 W/m2
19:34 3.1 °C 1.1 °C 1010.8 hPa Calm     87% 0.0 mm 0 W/m2
19:39 3.1 °C 1.1 °C 1010.8 hPa Calm     87% 0.0 mm 0 W/m2
19:44 3.1 °C 1.1 °C 1010.8 hPa Calm     87% 0.0 mm 0 W/m2
19:49 3.1 °C 1.1 °C 1010.8 hPa Calm     87% 0.0 mm 0 W/m2
19:54 3.1 °C 1.1 °C 1010.8 hPa Calm     87% 0.0 mm 0 W/m2
19:59 3.1 °C 1.1 °C 1010.8 hPa Calm     87% 0.0 mm 0 W/m2
20:04 3.1 °C 1.1 °C 1010.8 hPa Calm     87% 0.0 mm 0 W/m2
20:09 3.1 °C 1.1 °C 1011.2 hPa Calm     87% 0.0 mm 0 W/m2
20:14 3.1 °C 1.1 °C 1010.8 hPa Calm     87% 0.0 mm 0 W/m2
20:19 3.1 °C 1.1 °C 1010.8 hPa Calm     87% 0.0 mm 0 W/m2
20:24 3.1 °C 1.1 °C 1010.8 hPa Calm     87% 0.0 mm 0 W/m2
20:29 3.1 °C 1.1 °C 1010.8 hPa Calm     87% 0.0 mm 0 W/m2
20:34 3.1 °C 1.1 °C 1010.8 hPa Calm   1.6 km/h 87% 0.0 mm 0 W/m2
20:39 3.2 °C 1.4 °C 1010.8 hPa WNW 1.4 km/h 3.2 km/h 88% 0.0 mm 0 W/m2
20:49 3.2 °C 1.2 °C 1010.8 hPa Calm   1.6 km/h 87% 0.0 mm 0 W/m2
20:54 3.2 °C 1.2 °C 1010.8 hPa Calm     87% 0.0 mm 0 W/m2
20:59 3.2 °C 1.2 °C 1010.8 hPa Calm     87% 0.0 mm 0 W/m2
21:04 3.2 °C 1.2 °C 1010.8 hPa Calm   3.2 km/h 87% 0.0 mm 0 W/m2
21:09 3.3 °C 1.3 °C 1010.5 hPa Calm     87% 0.0 mm 0 W/m2
21:15 3.3 °C 1.3 °C 1010.8 hPa WNW 1.4 km/h 3.2 km/h 87% 0.0 mm 0 W/m2
21:20 3.4 °C 1.3 °C 1010.8 hPa Calm   1.6 km/h 86% 0.0 mm 0 W/m2
21:25 3.4 °C 1.3 °C 1010.5 hPa West 3.2 km/h 6.4 km/h 86% 0.0 mm 0 W/m2
21:30 3.6 °C 1.5 °C 1010.5 hPa Calm   4.8 km/h 86% 0.0 mm 0 W/m2
21:35 3.6 °C 1.3 °C 1010.5 hPa Calm   1.6 km/h 85% 0.0 mm 0 W/m2
21:40 3.7 °C 1.4 °C 1010.5 hPa Calm     85% 0.0 mm 0 W/m2
21:45 3.7 °C 1.4 °C 1010.5 hPa Calm     85% 0.0 mm 0 W/m2
21:50 3.7 °C 1.4 °C 1010.5 hPa Calm   1.6 km/h 85% 0.0 mm 0 W/m2
21:55 3.7 °C 1.6 °C 1010.5 hPa Calm     86% 0.0 mm 0 W/m2
22:00 3.7 °C 1.6 °C 1010.5 hPa Calm     86% 0.0 mm 0 W/m2
22:05 3.7 °C 1.6 °C 1010.5 hPa Calm     86% 0.0 mm 0 W/m2
22:10 3.7 °C 1.6 °C 1010.5 hPa WNW 1.4 km/h 3.2 km/h 86% 0.0 mm 0 W/m2
22:15 3.6 °C 1.5 °C 1010.2 hPa WNW 3.2 km/h 3.2 km/h 86% 0.0 mm 0 W/m2
22:20 3.6 °C 1.5 °C 1010.2 hPa Calm     86% 0.0 mm 0 W/m2
22:25 3.6 °C 1.6 °C 1010.5 hPa Calm   1.6 km/h 87% 0.0 mm 0 W/m2
22:30 3.5 °C 1.5 °C 1010.5 hPa Calm     87% 0.0 mm 0 W/m2
22:35 3.5 °C 1.5 °C 1010.2 hPa Calm     87% 0.0 mm 0 W/m2
22:40 3.4 °C 1.4 °C 1010.2 hPa Calm     87% 0.0 mm 0 W/m2
22:45 3.4 °C 1.4 °C 1010.2 hPa WNW 1.4 km/h 1.6 km/h 87% 0.0 mm 0 W/m2
22:50 3.3 °C 1.3 °C 1010.2 hPa Calm     87% 0.0 mm 0 W/m2
22:55 3.3 °C 1.3 °C 1010.2 hPa Calm     87% 0.0 mm 0 W/m2
23:00 3.2 °C 1.2 °C 1010.2 hPa Calm     87% 0.0 mm 0 W/m2
23:05 3 °C 1 °C 1009.8 hPa Calm     87% 0.0 mm 0 W/m2
23:10 2.8 °C 0.9 °C 1009.8 hPa Calm     87% 0.0 mm 0 W/m2
23:15 2.7 °C 0.8 °C 1009.8 hPa Calm     87% 0.0 mm 0 W/m2
23:20 2.4 °C 0.6 °C 1009.8 hPa Calm     88% 0.0 mm 0 W/m2
23:25 2.2 °C 0.4 °C 1009.8 hPa Calm     88% 0.0 mm 0 W/m2
23:30 2.1 °C 0.3 °C 1009.8 hPa Calm     88% 0.0 mm 0 W/m2
23:35 1.8 °C 0.2 °C 1009.5 hPa Calm     89% 0.0 mm 0 W/m2
23:40 1.7 °C 0.1 °C 1009.5 hPa Calm     89% 0.0 mm 0 W/m2
23:45 1.4 °C -0.2 °C 1009.5 hPa Calm     89% 0.0 mm 0 W/m2
23:50 1.3 °C -0.2 °C 1009.5 hPa Calm     90% 0.0 mm 0 W/m2
23:55 1.1 °C -0.4 °C 1009.5 hPa Calm     90% 0.0 mm 0 W/m2
Juneau County Weather
Compliments of Weather Underground - 4 mb